ENFB/FBU METAR and TAF weather

Enter ICAO airport designator
Station Type Date Time Source
ENFB METAR 2020/10/29 16:50 UTC NOAA

ENFB 291650Z AUTO 15017KT 9999NDV NCD 10/09 Q1002 W///S4


Station Type Date Time Source
ENFB Decoded METAR 2020/10/29 16:50 UTC NOAA

Oslo / Fornebu, Norway (ENFB) 59-54N 010-38E 17M
Oct 29, 2020 - 12:50 PM EDT / 2020.10.29 1650 UTC
Wind: from the SSE (150 degrees) at 20 MPH (17 KT):0
Temperature: 50 F (10 C)
Dew Point: 48 F (9 C)
Relative Humidity: 93%
Pressure (altimeter): 29.59 in. Hg (1002 hPa)
ob: ENFB 291650Z AUTO 15017KT 9999NDV NCD 10/09 Q1002 W///S4
cycle: 17

Station Type Date Time Source
ENFB TAF UTC NOAA

Error!

Example: see airport list